sensor_id;sensor_type;location;lat;lon;timestamp;P1;durP1;ratioP1;P2;durP2;ratioP2
9056;SDS011;4563;54.756;9.400;2023-02-28T00:00:29;5.97;;;1.87;;
9056;SDS011;4563;54.756;9.400;2023-02-28T00:02:57;3.90;;;1.90;;
9056;SDS011;4563;54.756;9.400;2023-02-28T00:05:25;2.63;;;1.70;;
9056;SDS011;4563;54.756;9.400;2023-02-28T00:07:53;3.60;;;1.80;;
9056;SDS011;4563;54.756;9.400;2023-02-28T00:10:22;3.80;;;1.67;;
9056;SDS011;4563;54.756;9.400;2023-02-28T00:12:51;3.27;;;2.10;;
9056;SDS011;4563;54.756;9.400;2023-02-28T00:15:22;2.67;;;1.90;;
9056;SDS011;4563;54.756;9.400;2023-02-28T00:17:49;6.83;;;2.10;;
9056;SDS011;4563;54.756;9.400;2023-02-28T00:20:17;2.20;;;1.70;;
9056;SDS011;4563;54.756;9.400;2023-02-28T00:22:45;5.17;;;2.13;;
9056;SDS011;4563;54.756;9.400;2023-02-28T00:25:15;2.43;;;2.17;;
9056;SDS011;4563;54.756;9.400;2023-02-28T00:27:43;4.97;;;2.63;;
9056;SDS011;4563;54.756;9.400;2023-02-28T00:30:13;6.63;;;2.80;;
9056;SDS011;4563;54.756;9.400;2023-02-28T00:32:41;2.17;;;1.93;;
9056;SDS011;4563;54.756;9.400;2023-02-28T00:35:09;2.50;;;2.00;;
9056;SDS011;4563;54.756;9.400;2023-02-28T00:37:36;5.23;;;2.17;;
9056;SDS011;4563;54.756;9.400;2023-02-28T00:40:04;3.40;;;2.20;;
9056;SDS011;4563;54.756;9.400;2023-02-28T00:42:33;4.33;;;2.17;;
9056;SDS011;4563;54.756;9.400;2023-02-28T00:45:00;6.67;;;2.30;;
9056;SDS011;4563;54.756;9.400;2023-02-28T00:47:30;7.00;;;2.63;;
9056;SDS011;4563;54.756;9.400;2023-02-28T00:49:57;5.47;;;2.57;;
9056;SDS011;4563;54.756;9.400;2023-02-28T00:52:24;6.80;;;3.40;;
9056;SDS011;4563;54.756;9.400;2023-02-28T00:54:51;6.57;;;2.97;;
9056;SDS011;4563;54.756;9.400;2023-02-28T00:57:17;5.40;;;2.60;;
9056;SDS011;4563;54.756;9.400;2023-02-28T00:59:44;4.20;;;2.57;;
9056;SDS011;4563;54.756;9.400;2023-02-28T01:02:11;3.47;;;2.90;;
9056;SDS011;4563;54.756;9.400;2023-02-28T01:04:39;4.90;;;3.27;;
9056;SDS011;4563;54.756;9.400;2023-02-28T01:07:06;4.93;;;3.40;;
9056;SDS011;4563;54.756;9.400;2023-02-28T01:09:33;5.70;;;3.03;;
9056;SDS011;4563;54.756;9.400;2023-02-28T01:12:00;5.70;;;3.13;;
9056;SDS011;4563;54.756;9.400;2023-02-28T01:14:26;4.47;;;3.10;;
9056;SDS011;4563;54.756;9.400;2023-02-28T01:16:53;5.67;;;3.30;;
9056;SDS011;4563;54.756;9.400;2023-02-28T01:19:20;3.20;;;2.90;;
9056;SDS011;4563;54.756;9.400;2023-02-28T01:21:48;5.37;;;3.40;;
9056;SDS011;4563;54.756;9.400;2023-02-28T01:24:15;6.40;;;3.63;;
9056;SDS011;4563;54.756;9.400;2023-02-28T01:26:42;7.33;;;3.40;;
9056;SDS011;4563;54.756;9.400;2023-02-28T01:29:08;5.60;;;3.50;;
9056;SDS011;4563;54.756;9.400;2023-02-28T01:31:35;7.57;;;3.73;;
9056;SDS011;4563;54.756;9.400;2023-02-28T01:34:02;4.13;;;2.60;;
9056;SDS011;4563;54.756;9.400;2023-02-28T01:36:29;4.37;;;3.57;;
9056;SDS011;4563;54.756;9.400;2023-02-28T01:38:57;3.97;;;3.57;;
9056;SDS011;4563;54.756;9.400;2023-02-28T01:41:26;5.83;;;3.90;;
9056;SDS011;4563;54.756;9.400;2023-02-28T01:43:56;4.03;;;3.70;;
9056;SDS011;4563;54.756;9.400;2023-02-28T01:46:28;8.60;;;4.03;;
9056;SDS011;4563;54.756;9.400;2023-02-28T01:48:57;7.67;;;4.33;;
9056;SDS011;4563;54.756;9.400;2023-02-28T01:51:29;4.90;;;3.90;;
9056;SDS011;4563;54.756;9.400;2023-02-28T01:54:01;8.20;;;4.20;;
9056;SDS011;4563;54.756;9.400;2023-02-28T01:56:32;5.83;;;3.47;;
9056;SDS011;4563;54.756;9.400;2023-02-28T01:59:01;4.77;;;3.70;;
9056;SDS011;4563;54.756;9.400;2023-02-28T02:01:29;4.97;;;3.97;;
9056;SDS011;4563;54.756;9.400;2023-02-28T02:03:57;5.83;;;4.30;;
9056;SDS011;4563;54.756;9.400;2023-02-28T02:06:28;5.70;;;4.03;;
9056;SDS011;4563;54.756;9.400;2023-02-28T02:08:57;7.30;;;4.50;;
9056;SDS011;4563;54.756;9.400;2023-02-28T02:11:25;7.17;;;4.47;;
9056;SDS011;4563;54.756;9.400;2023-02-28T02:14:04;8.23;;;4.67;;
9056;SDS011;4563;54.756;9.400;2023-02-28T02:16:55;6.30;;;4.20;;
9056;SDS011;4563;54.756;9.400;2023-02-28T02:25:53;4.60;;;4.10;;
9056;SDS011;4563;54.756;9.400;2023-02-28T02:28:40;6.97;;;4.57;;
9056;SDS011;4563;54.756;9.400;2023-02-28T02:31:27;7.07;;;4.67;;
9056;SDS011;4563;54.756;9.400;2023-02-28T02:34:28;7.37;;;3.90;;
9056;SDS011;4563;54.756;9.400;2023-02-28T02:37:05;4.57;;;4.10;;
9056;SDS011;4563;54.756;9.400;2023-02-28T02:39:44;9.17;;;4.93;;
9056;SDS011;4563;54.756;9.400;2023-02-28T02:42:18;5.67;;;4.20;;
9056;SDS011;4563;54.756;9.400;2023-02-28T02:44:49;4.50;;;4.10;;
9056;SDS011;4563;54.756;9.400;2023-02-28T02:47:20;5.27;;;4.33;;
9056;SDS011;4563;54.756;9.400;2023-02-28T02:49:52;6.33;;;4.67;;
9056;SDS011;4563;54.756;9.400;2023-02-28T02:52:22;6.17;;;4.07;;
9056;SDS011;4563;54.756;9.400;2023-02-28T02:54:54;6.23;;;4.90;;
9056;SDS011;4563;54.756;9.400;2023-02-28T02:57:24;6.03;;;4.60;;
9056;SDS011;4563;54.756;9.400;2023-02-28T02:59:53;5.67;;;4.80;;
9056;SDS011;4563;54.756;9.400;2023-02-28T03:02:23;7.53;;;4.93;;
9056;SDS011;4563;54.756;9.400;2023-02-28T03:04:53;6.53;;;4.67;;
9056;SDS011;4563;54.756;9.400;2023-02-28T03:07:25;5.10;;;3.97;;
9056;SDS011;4563;54.756;9.400;2023-02-28T03:09:52;5.17;;;4.10;;
9056;SDS011;4563;54.756;9.400;2023-02-28T03:12:21;7.43;;;4.70;;
9056;SDS011;4563;54.756;9.400;2023-02-28T03:14:54;6.57;;;4.17;;
9056;SDS011;4563;54.756;9.400;2023-02-28T03:17:42;7.53;;;5.00;;
9056;SDS011;4563;54.756;9.400;2023-02-28T03:20:19;4.97;;;4.03;;
9056;SDS011;4563;54.756;9.400;2023-02-28T03:23:01;5.63;;;4.23;;
9056;SDS011;4563;54.756;9.400;2023-02-28T03:25:37;5.93;;;4.57;;
9056;SDS011;4563;54.756;9.400;2023-02-28T03:28:25;7.27;;;4.73;;
9056;SDS011;4563;54.756;9.400;2023-02-28T03:30:59;10.03;;;4.50;;
9056;SDS011;4563;54.756;9.400;2023-02-28T03:33:30;6.20;;;4.37;;
9056;SDS011;4563;54.756;9.400;2023-02-28T03:36:04;6.07;;;4.77;;
9056;SDS011;4563;54.756;9.400;2023-02-28T03:38:35;4.87;;;4.17;;
9056;SDS011;4563;54.756;9.400;2023-02-28T03:41:06;5.37;;;4.67;;
9056;SDS011;4563;54.756;9.400;2023-02-28T03:43:39;7.60;;;4.77;;
9056;SDS011;4563;54.756;9.400;2023-02-28T03:46:10;6.57;;;4.80;;
9056;SDS011;4563;54.756;9.400;2023-02-28T03:48:42;6.87;;;4.53;;
9056;SDS011;4563;54.756;9.400;2023-02-28T03:51:14;6.80;;;4.97;;
9056;SDS011;4563;54.756;9.400;2023-02-28T03:53:44;8.57;;;4.57;;
9056;SDS011;4563;54.756;9.400;2023-02-28T03:56:14;6.67;;;4.47;;
9056;SDS011;4563;54.756;9.400;2023-02-28T03:58:45;5.07;;;4.47;;
9056;SDS011;4563;54.756;9.400;2023-02-28T04:01:16;7.03;;;4.33;;
9056;SDS011;4563;54.756;9.400;2023-02-28T04:03:47;6.90;;;4.37;;
9056;SDS011;4563;54.756;9.400;2023-02-28T04:06:17;6.17;;;4.27;;
9056;SDS011;4563;54.756;9.400;2023-02-28T04:08:46;8.13;;;5.03;;
9056;SDS011;4563;54.756;9.400;2023-02-28T04:11:17;5.93;;;4.10;;
9056;SDS011;4563;54.756;9.400;2023-02-28T04:13:47;9.63;;;7.67;;
9056;SDS011;4563;54.756;9.400;2023-02-28T04:16:14;6.10;;;5.47;;
9056;SDS011;4563;54.756;9.400;2023-02-28T04:18:41;13.97;;;9.27;;
9056;SDS011;4563;54.756;9.400;2023-02-28T04:21:09;7.30;;;5.07;;
9056;SDS011;4563;54.756;9.400;2023-02-28T04:23:38;15.20;;;10.40;;
9056;SDS011;4563;54.756;9.400;2023-02-28T04:26:05;6.63;;;4.77;;
9056;SDS011;4563;54.756;9.400;2023-02-28T04:28:32;4.97;;;3.93;;
9056;SDS011;4563;54.756;9.400;2023-02-28T04:31:00;8.03;;;5.07;;
9056;SDS011;4563;54.756;9.400;2023-02-28T04:33:29;8.13;;;5.27;;
9056;SDS011;4563;54.756;9.400;2023-02-28T04:35:58;8.67;;;5.80;;
9056;SDS011;4563;54.756;9.400;2023-02-28T04:38:25;7.73;;;5.73;;
9056;SDS011;4563;54.756;9.400;2023-02-28T04:40:56;9.10;;;5.90;;
9056;SDS011;4563;54.756;9.400;2023-02-28T04:43:23;10.67;;;7.10;;
9056;SDS011;4563;54.756;9.400;2023-02-28T04:45:50;7.83;;;5.97;;
9056;SDS011;4563;54.756;9.400;2023-02-28T04:48:17;10.13;;;6.57;;
9056;SDS011;4563;54.756;9.400;2023-02-28T04:50:44;10.97;;;6.50;;
9056;SDS011;4563;54.756;9.400;2023-02-28T04:53:10;7.50;;;5.50;;
9056;SDS011;4563;54.756;9.400;2023-02-28T04:55:37;12.67;;;7.17;;
9056;SDS011;4563;54.756;9.400;2023-02-28T04:58:06;8.23;;;6.17;;
9056;SDS011;4563;54.756;9.400;2023-02-28T05:00:33;7.47;;;5.30;;
9056;SDS011;4563;54.756;9.400;2023-02-28T05:03:00;7.13;;;5.97;;
9056;SDS011;4563;54.756;9.400;2023-02-28T05:05:27;8.57;;;5.67;;
9056;SDS011;4563;54.756;9.400;2023-02-28T05:07:54;9.33;;;6.03;;
9056;SDS011;4563;54.756;9.400;2023-02-28T05:10:21;10.13;;;5.83;;
9056;SDS011;4563;54.756;9.400;2023-02-28T05:12:48;9.80;;;6.23;;
9056;SDS011;4563;54.756;9.400;2023-02-28T05:15:16;8.63;;;5.43;;
9056;SDS011;4563;54.756;9.400;2023-02-28T05:17:43;9.17;;;6.93;;
9056;SDS011;4563;54.756;9.400;2023-02-28T05:20:10;10.47;;;6.67;;
9056;SDS011;4563;54.756;9.400;2023-02-28T05:22:38;10.47;;;6.67;;
9056;SDS011;4563;54.756;9.400;2023-02-28T05:25:05;9.50;;;7.13;;
9056;SDS011;4563;54.756;9.400;2023-02-28T05:27:34;12.10;;;6.90;;
9056;SDS011;4563;54.756;9.400;2023-02-28T05:30:01;11.03;;;7.00;;
9056;SDS011;4563;54.756;9.400;2023-02-28T05:32:30;9.43;;;6.73;;
9056;SDS011;4563;54.756;9.400;2023-02-28T05:34:57;5.73;;;4.90;;
9056;SDS011;4563;54.756;9.400;2023-02-28T05:37:24;7.67;;;5.07;;
9056;SDS011;4563;54.756;9.400;2023-02-28T05:39:51;8.53;;;6.17;;
9056;SDS011;4563;54.756;9.400;2023-02-28T05:42:18;10.27;;;7.00;;
9056;SDS011;4563;54.756;9.400;2023-02-28T05:44:45;10.17;;;7.00;;
9056;SDS011;4563;54.756;9.400;2023-02-28T05:47:12;10.07;;;6.83;;
9056;SDS011;4563;54.756;9.400;2023-02-28T05:49:41;10.63;;;7.60;;
9056;SDS011;4563;54.756;9.400;2023-02-28T05:52:08;9.80;;;6.50;;
9056;SDS011;4563;54.756;9.400;2023-02-28T05:54:35;8.50;;;6.30;;
9056;SDS011;4563;54.756;9.400;2023-02-28T05:57:02;14.37;;;7.93;;
9056;SDS011;4563;54.756;9.400;2023-02-28T05:59:29;9.27;;;6.83;;
9056;SDS011;4563;54.756;9.400;2023-02-28T06:01:56;12.37;;;8.00;;
9056;SDS011;4563;54.756;9.400;2023-02-28T06:04:22;12.77;;;6.87;;
9056;SDS011;4563;54.756;9.400;2023-02-28T06:06:51;14.43;;;7.67;;
9056;SDS011;4563;54.756;9.400;2023-02-28T06:09:18;10.87;;;6.67;;
9056;SDS011;4563;54.756;9.400;2023-02-28T06:11:45;10.40;;;7.00;;
9056;SDS011;4563;54.756;9.400;2023-02-28T06:14:13;11.37;;;6.90;;
9056;SDS011;4563;54.756;9.400;2023-02-28T06:16:42;10.57;;;6.97;;
9056;SDS011;4563;54.756;9.400;2023-02-28T06:19:09;8.87;;;6.30;;
9056;SDS011;4563;54.756;9.400;2023-02-28T06:21:37;10.70;;;6.90;;
9056;SDS011;4563;54.756;9.400;2023-02-28T06:24:05;10.30;;;6.87;;
9056;SDS011;4563;54.756;9.400;2023-02-28T06:26:33;10.97;;;6.57;;
9056;SDS011;4563;54.756;9.400;2023-02-28T06:28:59;11.40;;;7.50;;
9056;SDS011;4563;54.756;9.400;2023-02-28T06:31:26;14.53;;;8.10;;
9056;SDS011;4563;54.756;9.400;2023-02-28T06:33:54;8.83;;;6.97;;
9056;SDS011;4563;54.756;9.400;2023-02-28T06:36:20;10.23;;;7.10;;
9056;SDS011;4563;54.756;9.400;2023-02-28T06:38:48;12.97;;;6.97;;
9056;SDS011;4563;54.756;9.400;2023-02-28T06:41:21;14.83;;;8.00;;
9056;SDS011;4563;54.756;9.400;2023-02-28T06:43:48;10.67;;;6.57;;
9056;SDS011;4563;54.756;9.400;2023-02-28T06:46:15;10.80;;;7.57;;
9056;SDS011;4563;54.756;9.400;2023-02-28T06:48:42;14.93;;;8.33;;
9056;SDS011;4563;54.756;9.400;2023-02-28T06:51:11;12.43;;;8.80;;
9056;SDS011;4563;54.756;9.400;2023-02-28T06:53:40;14.07;;;7.47;;
9056;SDS011;4563;54.756;9.400;2023-02-28T06:56:08;15.03;;;8.17;;
9056;SDS011;4563;54.756;9.400;2023-02-28T06:58:37;12.67;;;8.07;;
9056;SDS011;4563;54.756;9.400;2023-02-28T07:01:05;13.67;;;8.87;;
9056;SDS011;4563;54.756;9.400;2023-02-28T07:03:32;17.63;;;8.17;;
9056;SDS011;4563;54.756;9.400;2023-02-28T07:06:00;12.10;;;8.47;;
9056;SDS011;4563;54.756;9.400;2023-02-28T07:08:29;12.40;;;8.17;;
9056;SDS011;4563;54.756;9.400;2023-02-28T07:10:56;12.93;;;9.43;;
9056;SDS011;4563;54.756;9.400;2023-02-28T07:13:24;23.93;;;15.50;;
9056;SDS011;4563;54.756;9.400;2023-02-28T07:15:56;17.57;;;9.57;;
9056;SDS011;4563;54.756;9.400;2023-02-28T07:18:23;13.83;;;8.53;;
9056;SDS011;4563;54.756;9.400;2023-02-28T07:20:50;14.10;;;8.83;;
9056;SDS011;4563;54.756;9.400;2023-02-28T07:23:17;13.43;;;8.47;;
9056;SDS011;4563;54.756;9.400;2023-02-28T07:25:44;17.63;;;10.00;;
9056;SDS011;4563;54.756;9.400;2023-02-28T07:28:11;12.80;;;8.50;;
9056;SDS011;4563;54.756;9.400;2023-02-28T07:30:39;14.87;;;9.47;;
9056;SDS011;4563;54.756;9.400;2023-02-28T07:33:08;21.13;;;10.20;;
9056;SDS011;4563;54.756;9.400;2023-02-28T07:35:35;15.80;;;8.37;;
9056;SDS011;4563;54.756;9.400;2023-02-28T07:38:02;11.33;;;8.00;;
9056;SDS011;4563;54.756;9.400;2023-02-28T07:40:29;10.23;;;7.73;;
9056;SDS011;4563;54.756;9.400;2023-02-28T07:42:57;11.67;;;8.07;;
9056;SDS011;4563;54.756;9.400;2023-02-28T07:45:25;12.47;;;8.27;;
9056;SDS011;4563;54.756;9.400;2023-02-28T07:47:53;16.07;;;8.73;;
9056;SDS011;4563;54.756;9.400;2023-02-28T07:50:22;15.83;;;9.60;;
9056;SDS011;4563;54.756;9.400;2023-02-28T07:52:49;13.70;;;8.37;;
9056;SDS011;4563;54.756;9.400;2023-02-28T07:55:16;26.83;;;13.93;;
9056;SDS011;4563;54.756;9.400;2023-02-28T07:57:43;17.00;;;11.23;;
9056;SDS011;4563;54.756;9.400;2023-02-28T08:00:11;16.57;;;9.33;;
9056;SDS011;4563;54.756;9.400;2023-02-28T08:02:38;16.33;;;10.27;;
9056;SDS011;4563;54.756;9.400;2023-02-28T08:05:06;16.07;;;9.93;;
9056;SDS011;4563;54.756;9.400;2023-02-28T08:07:35;16.90;;;10.20;;
9056;SDS011;4563;54.756;9.400;2023-02-28T08:10:01;29.23;;;11.17;;
9056;SDS011;4563;54.756;9.400;2023-02-28T08:12:30;14.13;;;9.70;;
9056;SDS011;4563;54.756;9.400;2023-02-28T08:14:57;19.97;;;9.70;;
9056;SDS011;4563;54.756;9.400;2023-02-28T08:17:24;12.87;;;9.07;;
9056;SDS011;4563;54.756;9.400;2023-02-28T08:19:51;16.03;;;9.17;;
9056;SDS011;4563;54.756;9.400;2023-02-28T08:22:17;23.93;;;11.33;;
9056;SDS011;4563;54.756;9.400;2023-02-28T08:24:47;16.77;;;9.87;;
9056;SDS011;4563;54.756;9.400;2023-02-28T08:27:14;12.53;;;9.10;;
9056;SDS011;4563;54.756;9.400;2023-02-28T08:29:42;16.60;;;9.97;;
9056;SDS011;4563;54.756;9.400;2023-02-28T08:32:09;13.63;;;8.63;;
9056;SDS011;4563;54.756;9.400;2023-02-28T08:34:36;15.27;;;9.37;;
9056;SDS011;4563;54.756;9.400;2023-02-28T08:37:05;15.93;;;10.43;;
9056;SDS011;4563;54.756;9.400;2023-02-28T08:39:33;13.80;;;9.03;;
9056;SDS011;4563;54.756;9.400;2023-02-28T08:42:02;12.73;;;7.80;;
9056;SDS011;4563;54.756;9.400;2023-02-28T08:44:30;14.77;;;7.87;;
9056;SDS011;4563;54.756;9.400;2023-02-28T08:46:56;14.47;;;7.90;;
9056;SDS011;4563;54.756;9.400;2023-02-28T08:49:23;15.90;;;7.83;;
9056;SDS011;4563;54.756;9.400;2023-02-28T08:51:50;17.40;;;8.17;;
9056;SDS011;4563;54.756;9.400;2023-02-28T08:54:17;16.20;;;7.17;;
9056;SDS011;4563;54.756;9.400;2023-02-28T08:56:44;12.37;;;6.17;;
9056;SDS011;4563;54.756;9.400;2023-02-28T08:59:13;12.87;;;7.07;;
9056;SDS011;4563;54.756;9.400;2023-02-28T09:01:46;12.37;;;7.13;;
9056;SDS011;4563;54.756;9.400;2023-02-28T09:04:13;11.60;;;6.60;;
9056;SDS011;4563;54.756;9.400;2023-02-28T09:06:40;13.43;;;7.50;;
9056;SDS011;4563;54.756;9.400;2023-02-28T09:09:07;13.60;;;7.43;;
9056;SDS011;4563;54.756;9.400;2023-02-28T09:11:37;12.80;;;7.23;;
9056;SDS011;4563;54.756;9.400;2023-02-28T09:14:04;13.67;;;7.60;;
9056;SDS011;4563;54.756;9.400;2023-02-28T09:16:32;14.67;;;8.27;;
9056;SDS011;4563;54.756;9.400;2023-02-28T09:22:42;13.87;;;7.63;;
9056;SDS011;4563;54.756;9.400;2023-02-28T09:25:09;16.13;;;6.70;;
9056;SDS011;4563;54.756;9.400;2023-02-28T09:27:36;11.20;;;6.47;;
9056;SDS011;4563;54.756;9.400;2023-02-28T09:30:03;10.60;;;6.40;;
9056;SDS011;4563;54.756;9.400;2023-02-28T09:32:32;13.33;;;5.80;;
9056;SDS011;4563;54.756;9.400;2023-02-28T09:34:59;9.60;;;5.33;;
9056;SDS011;4563;54.756;9.400;2023-02-28T09:37:26;14.10;;;4.40;;
9056;SDS011;4563;54.756;9.400;2023-02-28T09:39:56;7.43;;;4.07;;
9056;SDS011;4563;54.756;9.400;2023-02-28T09:42:25;8.97;;;5.07;;
9056;SDS011;4563;54.756;9.400;2023-02-28T09:44:58;5.93;;;5.33;;
9056;SDS011;4563;54.756;9.400;2023-02-28T09:47:27;10.20;;;5.97;;
9056;SDS011;4563;54.756;9.400;2023-02-28T09:50:00;12.93;;;6.20;;
9056;SDS011;4563;54.756;9.400;2023-02-28T09:52:37;9.73;;;6.17;;
9056;SDS011;4563;54.756;9.400;2023-02-28T09:55:10;8.40;;;6.37;;
9056;SDS011;4563;54.756;9.400;2023-02-28T09:57:56;9.47;;;6.70;;
9056;SDS011;4563;54.756;9.400;2023-02-28T10:00:27;11.67;;;7.27;;
9056;SDS011;4563;54.756;9.400;2023-02-28T10:03:14;12.53;;;7.03;;
9056;SDS011;4563;54.756;9.400;2023-02-28T10:05:56;8.50;;;6.80;;
9056;SDS011;4563;54.756;9.400;2023-02-28T10:08:32;9.50;;;6.33;;
9056;SDS011;4563;54.756;9.400;2023-02-28T10:11:06;15.83;;;6.97;;
9056;SDS011;4563;54.756;9.400;2023-02-28T10:13:37;12.07;;;6.63;;
9056;SDS011;4563;54.756;9.400;2023-02-28T10:16:13;13.60;;;9.20;;
9056;SDS011;4563;54.756;9.400;2023-02-28T10:18:43;9.63;;;6.73;;
9056;SDS011;4563;54.756;9.400;2023-02-28T10:21:18;7.60;;;5.67;;
9056;SDS011;4563;54.756;9.400;2023-02-28T10:23:49;10.93;;;5.70;;
9056;SDS011;4563;54.756;9.400;2023-02-28T10:26:22;9.83;;;5.27;;
9056;SDS011;4563;54.756;9.400;2023-02-28T10:28:54;7.93;;;5.50;;
9056;SDS011;4563;54.756;9.400;2023-02-28T10:31:21;8.23;;;5.40;;
9056;SDS011;4563;54.756;9.400;2023-02-28T10:33:48;7.63;;;5.57;;
9056;SDS011;4563;54.756;9.400;2023-02-28T10:36:18;9.20;;;5.27;;
9056;SDS011;4563;54.756;9.400;2023-02-28T10:38:49;7.60;;;5.37;;
9056;SDS011;4563;54.756;9.400;2023-02-28T10:41:26;4.43;;;3.73;;
9056;SDS011;4563;54.756;9.400;2023-02-28T10:44:12;10.60;;;5.60;;
9056;SDS011;4563;54.756;9.400;2023-02-28T10:46:41;7.30;;;5.00;;
9056;SDS011;4563;54.756;9.400;2023-02-28T10:49:13;8.57;;;5.67;;
9056;SDS011;4563;54.756;9.400;2023-02-28T10:51:44;9.40;;;4.90;;
9056;SDS011;4563;54.756;9.400;2023-02-28T10:54:16;7.73;;;5.00;;
9056;SDS011;4563;54.756;9.400;2023-02-28T10:56:46;7.37;;;5.60;;
9056;SDS011;4563;54.756;9.400;2023-02-28T10:59:33;8.87;;;5.60;;
9056;SDS011;4563;54.756;9.400;2023-02-28T11:02:00;9.43;;;4.77;;
9056;SDS011;4563;54.756;9.400;2023-02-28T11:04:32;6.77;;;4.50;;
9056;SDS011;4563;54.756;9.400;2023-02-28T11:07:04;9.83;;;5.27;;
9056;SDS011;4563;54.756;9.400;2023-02-28T11:09:33;7.43;;;4.40;;
9056;SDS011;4563;54.756;9.400;2023-02-28T11:12:04;8.17;;;5.10;;
9056;SDS011;4563;54.756;9.400;2023-02-28T11:14:32;7.83;;;4.90;;
9056;SDS011;4563;54.756;9.400;2023-02-28T11:17:11;8.50;;;5.10;;
9056;SDS011;4563;54.756;9.400;2023-02-28T11:19:45;8.43;;;4.83;;
9056;SDS011;4563;54.756;9.400;2023-02-28T11:22:19;6.70;;;4.80;;
9056;SDS011;4563;54.756;9.400;2023-02-28T11:24:48;7.10;;;4.87;;
9056;SDS011;4563;54.756;9.400;2023-02-28T11:27:39;5.63;;;4.73;;
9056;SDS011;4563;54.756;9.400;2023-02-28T11:30:28;4.77;;;3.87;;
9056;SDS011;4563;54.756;9.400;2023-02-28T11:32:57;4.90;;;4.30;;
9056;SDS011;4563;54.756;9.400;2023-02-28T11:35:24;5.57;;;4.70;;
9056;SDS011;4563;54.756;9.400;2023-02-28T11:37:56;13.13;;;5.53;;
9056;SDS011;4563;54.756;9.400;2023-02-28T11:40:25;7.73;;;4.90;;
9056;SDS011;4563;54.756;9.400;2023-02-28T11:43:00;7.57;;;4.30;;
9056;SDS011;4563;54.756;9.400;2023-02-28T11:45:44;8.57;;;5.47;;
9056;SDS011;4563;54.756;9.400;2023-02-28T11:48:21;8.23;;;5.80;;
9056;SDS011;4563;54.756;9.400;2023-02-28T11:50:54;9.33;;;4.87;;
9056;SDS011;4563;54.756;9.400;2023-02-28T11:53:35;7.20;;;4.80;;
9056;SDS011;4563;54.756;9.400;2023-02-28T11:56:28;9.77;;;5.17;;
9056;SDS011;4563;54.756;9.400;2023-02-28T11:59:04;6.73;;;4.47;;
9056;SDS011;4563;54.756;9.400;2023-02-28T12:01:45;5.30;;;4.70;;
9056;SDS011;4563;54.756;9.400;2023-02-28T12:04:31;5.10;;;4.17;;
9056;SDS011;4563;54.756;9.400;2023-02-28T12:07:15;7.53;;;4.70;;
9056;SDS011;4563;54.756;9.400;2023-02-28T12:09:54;4.70;;;4.20;;
9056;SDS011;4563;54.756;9.400;2023-02-28T12:12:33;4.23;;;3.87;;
9056;SDS011;4563;54.756;9.400;2023-02-28T12:15:15;6.97;;;5.20;;
9056;SDS011;4563;54.756;9.400;2023-02-28T12:18:00;6.03;;;4.60;;
9056;SDS011;4563;54.756;9.400;2023-02-28T12:20:34;5.30;;;4.33;;
9056;SDS011;4563;54.756;9.400;2023-02-28T12:23:10;5.80;;;4.10;;
9056;SDS011;4563;54.756;9.400;2023-02-28T12:26:12;8.13;;;4.77;;
9056;SDS011;4563;54.756;9.400;2023-02-28T12:28:45;4.73;;;3.70;;
9056;SDS011;4563;54.756;9.400;2023-02-28T12:31:17;6.17;;;4.30;;
9056;SDS011;4563;54.756;9.400;2023-02-28T12:33:49;6.10;;;4.30;;
9056;SDS011;4563;54.756;9.400;2023-02-28T12:36:19;8.03;;;3.97;;
9056;SDS011;4563;54.756;9.400;2023-02-28T12:38:49;7.87;;;4.33;;
9056;SDS011;4563;54.756;9.400;2023-02-28T12:41:22;4.90;;;3.50;;
9056;SDS011;4563;54.756;9.400;2023-02-28T12:43:55;9.67;;;4.03;;
9056;SDS011;4563;54.756;9.400;2023-02-28T12:46:28;6.97;;;4.77;;
9056;SDS011;4563;54.756;9.400;2023-02-28T12:49:00;6.77;;;4.13;;
9056;SDS011;4563;54.756;9.400;2023-02-28T12:51:32;7.60;;;4.70;;
9056;SDS011;4563;54.756;9.400;2023-02-28T12:54:04;7.27;;;4.40;;
9056;SDS011;4563;54.756;9.400;2023-02-28T12:56:42;3.80;;;3.40;;
9056;SDS011;4563;54.756;9.400;2023-02-28T12:59:14;4.43;;;3.80;;
9056;SDS011;4563;54.756;9.400;2023-02-28T13:01:53;4.37;;;3.50;;
9056;SDS011;4563;54.756;9.400;2023-02-28T13:07:40;7.63;;;5.10;;
9056;SDS011;4563;54.756;9.400;2023-02-28T13:10:22;7.90;;;4.70;;
9056;SDS011;4563;54.756;9.400;2023-02-28T13:12:51;5.10;;;4.57;;
9056;SDS011;4563;54.756;9.400;2023-02-28T13:15:22;5.27;;;4.10;;
9056;SDS011;4563;54.756;9.400;2023-02-28T13:17:53;5.07;;;4.23;;
9056;SDS011;4563;54.756;9.400;2023-02-28T13:20:23;5.00;;;4.33;;
9056;SDS011;4563;54.756;9.400;2023-02-28T13:22:52;5.43;;;4.37;;
9056;SDS011;4563;54.756;9.400;2023-02-28T13:31:25;4.67;;;4.17;;
9056;SDS011;4563;54.756;9.400;2023-02-28T13:36:41;4.63;;;4.23;;
9056;SDS011;4563;54.756;9.400;2023-02-28T13:42:23;6.40;;;4.37;;
9056;SDS011;4563;54.756;9.400;2023-02-28T13:47:56;5.93;;;5.33;;
9056;SDS011;4563;54.756;9.400;2023-02-28T13:50:31;4.30;;;3.90;;
9056;SDS011;4563;54.756;9.400;2023-02-28T13:56:06;6.70;;;5.20;;
9056;SDS011;4563;54.756;9.400;2023-02-28T13:58:48;5.43;;;4.83;;
9056;SDS011;4563;54.756;9.400;2023-02-28T14:01:27;4.83;;;4.33;;
9056;SDS011;4563;54.756;9.400;2023-02-28T14:04:25;6.77;;;4.27;;
9056;SDS011;4563;54.756;9.400;2023-02-28T14:07:21;4.30;;;3.87;;
9056;SDS011;4563;54.756;9.400;2023-02-28T14:09:55;6.97;;;4.00;;
9056;SDS011;4563;54.756;9.400;2023-02-28T14:15:28;6.20;;;4.63;;
9056;SDS011;4563;54.756;9.400;2023-02-28T14:18:11;5.33;;;4.23;;
9056;SDS011;4563;54.756;9.400;2023-02-28T14:20:43;4.17;;;3.83;;
9056;SDS011;4563;54.756;9.400;2023-02-28T14:23:14;6.17;;;4.47;;
9056;SDS011;4563;54.756;9.400;2023-02-28T14:25:48;4.17;;;3.77;;
9056;SDS011;4563;54.756;9.400;2023-02-28T14:28:23;7.80;;;4.27;;
9056;SDS011;4563;54.756;9.400;2023-02-28T14:31:04;7.27;;;4.60;;
9056;SDS011;4563;54.756;9.400;2023-02-28T14:36:31;6.13;;;4.57;;
9056;SDS011;4563;54.756;9.400;2023-02-28T14:39:03;5.23;;;3.53;;
9056;SDS011;4563;54.756;9.400;2023-02-28T14:41:33;5.87;;;4.30;;
9056;SDS011;4563;54.756;9.400;2023-02-28T14:44:02;3.90;;;3.57;;
9056;SDS011;4563;54.756;9.400;2023-02-28T14:46:40;5.60;;;3.87;;
9056;SDS011;4563;54.756;9.400;2023-02-28T14:49:15;4.30;;;3.87;;
9056;SDS011;4563;54.756;9.400;2023-02-28T14:51:45;3.83;;;3.47;;
9056;SDS011;4563;54.756;9.400;2023-02-28T14:54:14;6.70;;;3.77;;
9056;SDS011;4563;54.756;9.400;2023-02-28T14:56:43;3.50;;;3.17;;
9056;SDS011;4563;54.756;9.400;2023-02-28T14:59:24;9.13;;;4.60;;
9056;SDS011;4563;54.756;9.400;2023-02-28T15:04:44;5.03;;;3.83;;
9056;SDS011;4563;54.756;9.400;2023-02-28T15:07:19;5.33;;;4.50;;
9056;SDS011;4563;54.756;9.400;2023-02-28T15:10:05;7.30;;;4.87;;
9056;SDS011;4563;54.756;9.400;2023-02-28T15:12:34;6.33;;;4.37;;
9056;SDS011;4563;54.756;9.400;2023-02-28T15:15:01;4.90;;;4.40;;
9056;SDS011;4563;54.756;9.400;2023-02-28T15:17:29;6.07;;;4.27;;
9056;SDS011;4563;54.756;9.400;2023-02-28T15:19:58;5.57;;;5.07;;
9056;SDS011;4563;54.756;9.400;2023-02-28T15:22:27;7.20;;;4.57;;
9056;SDS011;4563;54.756;9.400;2023-02-28T15:24:57;6.07;;;4.23;;
9056;SDS011;4563;54.756;9.400;2023-02-28T15:27:25;7.17;;;4.60;;
9056;SDS011;4563;54.756;9.400;2023-02-28T15:29:56;7.80;;;4.67;;
9056;SDS011;4563;54.756;9.400;2023-02-28T15:32:26;6.00;;;4.00;;
9056;SDS011;4563;54.756;9.400;2023-02-28T15:34:55;4.43;;;4.03;;
9056;SDS011;4563;54.756;9.400;2023-02-28T15:37:40;6.60;;;4.10;;
9056;SDS011;4563;54.756;9.400;2023-02-28T15:40:14;5.43;;;4.20;;
9056;SDS011;4563;54.756;9.400;2023-02-28T15:42:43;6.23;;;4.10;;
9056;SDS011;4563;54.756;9.400;2023-02-28T15:45:29;18.47;;;15.33;;
9056;SDS011;4563;54.756;9.400;2023-02-28T15:48:02;6.83;;;4.00;;
9056;SDS011;4563;54.756;9.400;2023-02-28T15:50:29;6.67;;;4.10;;
9056;SDS011;4563;54.756;9.400;2023-02-28T15:52:58;4.97;;;4.17;;
9056;SDS011;4563;54.756;9.400;2023-02-28T15:55:28;4.80;;;4.10;;
9056;SDS011;4563;54.756;9.400;2023-02-28T15:57:56;4.87;;;4.10;;
9056;SDS011;4563;54.756;9.400;2023-02-28T16:00:27;7.60;;;5.33;;
9056;SDS011;4563;54.756;9.400;2023-02-28T16:02:58;8.40;;;4.67;;
9056;SDS011;4563;54.756;9.400;2023-02-28T16:05:25;7.07;;;4.40;;
9056;SDS011;4563;54.756;9.400;2023-02-28T16:07:59;5.73;;;4.90;;
9056;SDS011;4563;54.756;9.400;2023-02-28T16:10:29;9.23;;;4.60;;
9056;SDS011;4563;54.756;9.400;2023-02-28T16:12:56;7.63;;;4.73;;